CheckWX is a tool to help pilots better visualize weather data.  It is not intended as a substitute for an official pre-flight weather briefing.

17:23:34 UTC

EYPA METAR
Palanga International Airport
Palanga, Lithuania
Current

34 mins ago

EYPA 181650Z VRB04KT 9999 BKN007 17/15 Q1013
Observed
Jul-18 @ 16:50 UTC
Wind
  • Variable at 4 KTS
Visibility
10,000+ meters
Flight Rules
IFR
Cloud Levels
  • Broken at 700' AGL
Temperature
17°C / 63°F
Dewpoint
15°C / 59°F
Humidity
88%
Altimeter
29.91" Hg
Pressure
1012.92 hPa
Previous

1 hour ago

EYPA 181620Z VRB04KT 9999 BKN007 17/15 Q1013
Observed
Jul-18 @ 16:20 UTC
Wind
  • Variable at 4 KTS
Visibility
10,000+ meters
Flight Rules
IFR
Cloud Levels
  • Broken at 700' AGL
Temperature
17°C / 63°F
Dewpoint
15°C / 59°F
Humidity
88%
Altimeter
29.91" Hg
Pressure
1012.92 hPa
Previous

2 hours ago

EYPA 181550Z VRB04KT 9999 BKN008 17/15 Q1013
Observed
Jul-18 @ 15:50 UTC
Wind
  • Variable at 4 KTS
Visibility
10,000+ meters
Flight Rules
IFR
Cloud Levels
  • Broken at 800' AGL
Temperature
17°C / 63°F
Dewpoint
15°C / 59°F
Humidity
88%
Altimeter
29.91" Hg
Pressure
1012.92 hPa